createdAt,value
2022-11-10T00:01:27.945Z,7.95
2022-11-10T00:16:47.867Z,7.68
2022-11-10T00:31:49.448Z,8.07
2022-11-10T00:46:50.962Z,9.70
2022-11-10T01:01:52.409Z,7.78
2022-11-10T01:16:53.910Z,8.07
2022-11-10T01:31:55.405Z,7.90
2022-11-10T01:46:56.867Z,7.42
2022-11-10T02:02:02.027Z,7.23
2022-11-10T02:17:03.555Z,7.23
2022-11-10T02:32:05.013Z,6.99
2022-11-10T02:47:06.956Z,7.23
2022-11-10T03:02:08.494Z,6.81
2022-11-10T03:17:10.056Z,6.77
2022-11-10T03:32:11.647Z,6.46
2022-11-10T03:47:13.131Z,6.66
2022-11-10T04:02:14.641Z,6.52
2022-11-10T04:17:16.093Z,6.75
2022-11-10T04:32:17.604Z,6.57
2022-11-10T04:47:19.075Z,6.76
2022-11-10T05:02:20.550Z,6.65
2022-11-10T05:17:22.396Z,6.62
2022-11-10T05:32:23.864Z,6.88
2022-11-10T05:47:25.565Z,8.78
2022-11-10T06:02:27.012Z,9.08
2022-11-10T06:17:28.517Z,12.42
2022-11-10T06:32:29.994Z,11.98
2022-11-10T06:47:31.646Z,12.20
2022-11-10T07:02:33.177Z,12.10
2022-11-10T07:17:39.268Z,12.32
2022-11-10T07:32:40.726Z,12.37
2022-11-10T07:47:42.199Z,13.19
2022-11-10T08:02:43.684Z,14.06
2022-11-10T08:17:45.135Z,13.92
2022-11-10T08:32:46.590Z,16.14
2022-11-10T08:47:48.051Z,15.25
2022-11-10T09:02:49.515Z,16.34
2022-11-10T09:17:51.063Z,14.84
2022-11-10T09:32:59.830Z,19.54
2022-11-10T09:48:05.299Z,17.45
2022-11-10T10:03:08.122Z,15.66
2022-11-10T10:18:18.968Z,17.99
2022-11-10T10:33:21.993Z,16.27
2022-11-10T10:48:27.646Z,19.68
2022-11-10T11:03:50.084Z,16.11
2022-11-10T11:18:51.661Z,15.68
2022-11-10T11:33:53.200Z,16.64
2022-11-10T11:48:54.679Z,17.46
2022-11-10T12:03:56.196Z,17.07
2022-11-10T12:19:06.909Z,16.87
2022-11-10T12:34:11.529Z,17.14
2022-11-10T12:49:16.008Z,16.65
2022-11-10T13:04:18.943Z,18.05
2022-11-10T13:19:20.366Z,16.54
2022-11-10T13:34:21.818Z,15.17
2022-11-10T13:49:29.211Z,13.83
2022-11-10T14:04:36.862Z,13.07
2022-11-10T14:19:39.592Z,12.40
2022-11-10T14:34:46.399Z,11.98
2022-11-10T14:50:02.465Z,12.31
2022-11-10T15:05:04.289Z,11.62
2022-11-10T15:20:07.695Z,11.34
2022-11-10T15:35:09.543Z,11.03
2022-11-10T15:50:12.261Z,11.00
2022-11-10T16:05:13.847Z,10.40
2022-11-10T16:20:15.436Z,10.31
2022-11-10T16:35:16.930Z,10.29
2022-11-10T16:50:29.690Z,10.18
2022-11-10T17:05:31.311Z,9.96
2022-11-10T17:20:34.650Z,10.04
2022-11-10T17:35:40.608Z,9.81
2022-11-10T17:50:42.853Z,9.69
2022-11-10T18:05:44.830Z,10.05
2022-11-10T18:20:46.316Z,9.99
2022-11-10T18:35:47.786Z,9.41
2022-11-10T18:50:49.517Z,9.96
2022-11-10T19:05:58.385Z,10.08
2022-11-10T19:21:06.838Z,9.95
2022-11-10T19:36:12.136Z,9.81
2022-11-10T19:51:14.682Z,9.93
2022-11-10T20:06:17.843Z,9.80
2022-11-10T20:21:22.820Z,9.50
2022-11-10T20:36:26.260Z,9.43
2022-11-10T20:51:27.712Z,10.16
2022-11-10T21:06:29.204Z,10.07
2022-11-10T21:21:36.720Z,10.40
2022-11-10T21:36:38.715Z,9.60
2022-11-10T21:51:40.216Z,8.78
2022-11-10T22:16:52.354Z,9.77
2022-11-10T22:31:53.966Z,10.93
2022-11-10T22:46:55.591Z,11.25
2022-11-10T23:01:57.236Z,11.36
2022-11-10T23:16:58.764Z,11.60
2022-11-10T23:32:00.285Z,11.48
2022-11-10T23:47:01.931Z,11.48
